createdAt,value
2019-01-10T00:01:49.536Z,72.27
2019-01-10T00:04:20.244Z,63.43
2019-01-10T00:09:39.681Z,61.57
2019-01-10T00:12:09.956Z,55.53
2019-01-10T00:14:40.101Z,57.37
2019-01-10T00:17:10.257Z,59.10
2019-01-10T00:19:40.538Z,59.47
2019-01-10T00:22:10.779Z,57.57
2019-01-10T00:24:40.953Z,68.80
2019-01-10T00:27:11.101Z,72.60
2019-01-10T00:29:41.347Z,61.53
2019-01-10T00:32:11.625Z,69.37
2019-01-10T00:34:41.788Z,48.83
2019-01-10T00:37:11.939Z,55.40
2019-01-10T00:39:42.197Z,59.47
2019-01-10T00:42:12.460Z,61.20
2019-01-10T00:44:42.614Z,71.80
2019-01-10T00:47:12.881Z,54.53
2019-01-10T00:49:43.038Z,61.47
2019-01-10T00:52:13.209Z,55.30
2019-01-10T00:54:43.457Z,63.63
2019-01-10T00:57:13.710Z,58.50
2019-01-10T00:59:43.869Z,69.10
2019-01-10T01:02:14.022Z,71.57
2019-01-10T01:04:44.294Z,61.40
2019-01-10T01:07:14.551Z,56.27
2019-01-10T01:12:20.541Z,44.73
2019-01-10T01:14:50.905Z,59.43
2019-01-10T01:17:21.171Z,52.73
2019-01-10T01:19:51.392Z,58.67
2019-01-10T01:22:21.563Z,63.63
2019-01-10T01:24:51.786Z,60.50
2019-01-10T01:27:21.978Z,58.93
2019-01-10T01:29:52.221Z,50.80
2019-01-10T01:32:22.504Z,52.47
2019-01-10T01:34:52.696Z,41.33
2019-01-10T01:37:22.891Z,57.93
2019-01-10T01:42:52.469Z,53.20
2019-01-10T01:45:22.708Z,58.57
2019-01-10T01:47:52.879Z,62.10
2019-01-10T01:50:24.648Z,63.87
2019-01-10T01:52:55.037Z,51.57
2019-01-10T01:55:25.275Z,69.07
2019-01-10T01:57:55.457Z,59.37
2019-01-10T02:00:26.186Z,73.43
2019-01-10T02:02:56.439Z,60.37
2019-01-10T02:05:26.671Z,65.73
2019-01-10T02:07:56.857Z,60.30
2019-01-10T02:10:29.121Z,75.03
2019-01-10T02:12:59.532Z,52.73
2019-01-10T02:15:29.728Z,58.03
2019-01-10T02:17:59.998Z,59.07
2019-01-10T02:20:30.319Z,71.57
2019-01-10T02:23:00.504Z,64.30
2019-01-10T02:25:30.870Z,78.87
2019-01-10T02:28:01.131Z,55.23
2019-01-10T02:30:31.386Z,79.13
2019-01-10T02:33:01.557Z,77.73
2019-01-10T02:35:31.728Z,65.93
2019-01-10T02:38:01.981Z,67.43
2019-01-10T02:40:32.237Z,61.03
2019-01-10T02:43:02.488Z,68.23
2019-01-10T02:45:32.799Z,88.63
2019-01-10T02:48:03.206Z,53.57
2019-01-10T02:50:33.480Z,66.10
2019-01-10T02:53:03.722Z,68.93
2019-01-10T02:55:33.974Z,58.67
2019-01-10T02:58:04.234Z,58.37
2019-01-10T03:00:34.408Z,56.17
2019-01-10T03:06:02.504Z,47.00
2019-01-10T03:08:32.689Z,57.60
2019-01-10T03:11:02.883Z,56.70
2019-01-10T03:13:36.823Z,54.03
2019-01-10T03:16:05.285Z,52.67
2019-01-10T03:18:35.545Z,48.10
2019-01-10T03:21:05.918Z,78.67
2019-01-10T03:23:36.189Z,77.63
2019-01-10T03:26:06.469Z,60.13
2019-01-10T03:28:36.659Z,67.37
2019-01-10T03:31:06.929Z,63.93
2019-01-10T03:33:37.058Z,64.83
2019-01-10T03:36:07.210Z,69.90
2019-01-10T03:38:37.453Z,60.83
2019-01-10T03:41:07.700Z,62.60
2019-01-10T03:43:46.435Z,73.93
2019-01-10T03:48:46.035Z,66.17
2019-01-10T03:51:16.322Z,57.63
2019-01-10T03:53:46.463Z,62.23
2019-01-10T03:56:16.636Z,58.67
2019-01-10T03:58:46.891Z,68.60
2019-01-10T04:01:17.171Z,65.33
2019-01-10T04:03:47.322Z,75.10
2019-01-10T04:06:17.459Z,65.00
2019-01-10T04:08:47.716Z,87.40
2019-01-10T04:11:17.917Z,82.10
2019-01-10T04:13:57.024Z,62.50
2019-01-10T04:16:20.354Z,65.47
2019-01-10T04:18:50.627Z,52.87
2019-01-10T04:21:20.811Z,62.17
2019-01-10T04:23:53.837Z,52.90
2019-01-10T04:26:24.115Z,76.87
2019-01-10T04:28:54.268Z,89.73
2019-01-10T04:31:24.518Z,78.40
2019-01-10T04:33:54.776Z,64.33
2019-01-10T04:36:25.031Z,76.77
2019-01-10T04:38:55.192Z,62.77
2019-01-10T04:41:25.355Z,71.07
2019-01-10T04:43:55.627Z,86.67
2019-01-10T04:46:25.872Z,74.07
2019-01-10T04:48:56.023Z,83.50
2019-01-10T04:51:26.279Z,80.17
2019-01-10T04:53:56.450Z,77.00
2019-01-10T04:56:26.625Z,76.40
2019-01-10T04:58:56.886Z,74.17
2019-01-10T05:01:27.149Z,64.50
2019-01-10T05:03:57.310Z,81.80
2019-01-10T05:06:27.509Z,81.93
2019-01-10T05:08:57.787Z,88.00
2019-01-10T05:11:28.034Z,78.80
2019-01-10T05:13:58.192Z,70.83
2019-01-10T05:16:28.471Z,80.43
2019-01-10T05:18:58.752Z,76.63
2019-01-10T05:21:29.011Z,82.53
2019-01-10T05:23:59.161Z,94.67
2019-01-10T05:26:29.317Z,76.70
2019-01-10T05:28:59.570Z,86.80
2019-01-10T05:31:29.861Z,83.20
2019-01-10T05:34:00.081Z,91.13
2019-01-10T05:36:30.373Z,270.60
2019-01-10T05:39:00.716Z,130.20
2019-01-10T05:41:30.998Z,525.97
2019-01-10T05:44:01.168Z,276.10
2019-01-10T05:46:31.336Z,357.87
2019-01-10T05:49:01.610Z,105.10
2019-01-10T05:51:31.893Z,136.03
2019-01-10T05:54:02.113Z,139.07
2019-01-10T05:56:32.301Z,129.63
2019-01-10T05:59:02.576Z,127.87
2019-01-10T06:01:32.943Z,106.63
2019-01-10T06:15:45.079Z,93.70
2019-01-10T06:18:15.396Z,99.10
2019-01-10T06:20:45.570Z,99.00
2019-01-10T06:23:17.971Z,98.97
2019-01-10T06:25:47.989Z,92.77
2019-01-10T06:28:18.175Z,102.73
2019-01-10T06:30:48.400Z,78.90
2019-01-10T06:33:18.669Z,105.80
2019-01-10T06:35:48.934Z,85.83
2019-01-10T06:38:19.080Z,121.83
2019-01-10T06:40:49.252Z,165.70
2019-01-10T06:43:19.509Z,137.10
2019-01-10T06:45:49.770Z,164.77
2019-01-10T06:48:19.946Z,154.97
2019-01-10T06:50:50.116Z,160.67
2019-01-10T06:56:44.667Z,161.40
2019-01-10T06:59:15.016Z,133.60
2019-01-10T07:01:45.400Z,132.70
2019-01-10T07:04:15.569Z,149.03
2019-01-10T07:06:45.761Z,162.70
2019-01-10T07:09:16.056Z,155.57
2019-01-10T07:11:46.339Z,169.93
2019-01-10T07:14:16.499Z,172.40
2019-01-10T07:16:53.603Z,194.67
2019-01-10T07:19:57.758Z,214.67
2019-01-10T07:22:28.133Z,222.63
2019-01-10T07:24:58.297Z,226.23
2019-01-10T07:27:28.599Z,199.73
2019-01-10T07:29:59.704Z,185.83
2019-01-10T07:32:31.131Z,140.57
2019-01-10T07:35:03.228Z,162.77
2019-01-10T07:37:33.474Z,113.17
2019-01-10T07:40:03.728Z,121.03
2019-01-10T07:42:52.772Z,109.30
2019-01-10T07:45:44.161Z,112.80
2019-01-10T07:48:14.540Z,120.90
2019-01-10T07:50:44.701Z,114.47
2019-01-10T07:53:14.873Z,184.30
2019-01-10T07:55:45.219Z,169.20
2019-01-10T07:58:15.454Z,158.10
2019-01-10T08:00:45.649Z,145.30
2019-01-10T08:03:15.852Z,159.87
2019-01-10T08:05:46.108Z,187.07
2019-01-10T08:08:16.369Z,156.63
2019-01-10T08:10:46.610Z,187.90
2019-01-10T08:13:16.771Z,155.67
2019-01-10T08:15:47.045Z,141.23
2019-01-10T08:18:17.293Z,148.50
2019-01-10T08:20:47.462Z,154.40
2019-01-10T08:23:17.719Z,153.27
2019-01-10T08:25:47.979Z,139.43
2019-01-10T08:28:18.254Z,198.33
2019-01-10T08:30:48.411Z,221.37
2019-01-10T08:33:18.635Z,205.40
2019-01-10T08:35:48.891Z,148.33
2019-01-10T08:38:19.162Z,160.40
2019-01-10T08:40:49.312Z,168.47
2019-01-10T08:43:19.492Z,162.60
2019-01-10T08:45:56.981Z,144.73
2019-01-10T08:48:27.371Z,164.27
2019-01-10T08:50:57.680Z,371.83
2019-01-10T08:53:27.932Z,348.00
2019-01-10T08:55:58.286Z,357.73
2019-01-10T08:58:28.524Z,459.37
2019-01-10T09:00:58.700Z,336.43
2019-01-10T09:03:28.956Z,207.03
2019-01-10T09:06:07.853Z,189.47
2019-01-10T09:08:31.143Z,156.53
2019-01-10T09:11:01.389Z,170.57
2019-01-10T09:13:31.653Z,302.87
2019-01-10T09:16:01.979Z,158.83
2019-01-10T09:18:32.256Z,173.50
2019-01-10T09:21:04.462Z,179.83
2019-01-10T09:23:34.687Z,157.03
2019-01-10T09:26:04.975Z,136.80
2019-01-10T09:28:35.151Z,134.30
2019-01-10T09:31:05.387Z,194.20
2019-01-10T09:33:35.656Z,179.43
2019-01-10T09:36:05.821Z,187.00
2019-01-10T09:38:36.009Z,307.73
2019-01-10T09:41:06.339Z,148.87
2019-01-10T09:43:36.516Z,141.80
2019-01-10T09:46:06.895Z,131.33
2019-01-10T09:48:37.155Z,123.60
2019-01-10T09:51:07.329Z,173.83
2019-01-10T09:53:37.498Z,176.00
2019-01-10T09:56:07.852Z,125.37
2019-01-10T09:58:38.106Z,128.33
2019-01-10T10:01:08.327Z,115.20
2019-01-10T10:03:38.506Z,121.00
2019-01-10T10:06:08.843Z,84.50
2019-01-10T10:08:39.158Z,84.13
2019-01-10T10:11:09.334Z,97.73
2019-01-10T10:13:39.521Z,100.03
2019-01-10T10:16:09.796Z,86.60
2019-01-10T10:18:40.059Z,77.20
2019-01-10T10:21:10.260Z,81.30
2019-01-10T10:23:41.136Z,100.33
2019-01-10T10:26:12.804Z,83.73
2019-01-10T10:28:43.016Z,80.83
2019-01-10T10:31:13.304Z,68.80
2019-01-10T10:33:43.595Z,62.50
2019-01-10T10:36:13.811Z,89.53
2019-01-10T10:38:43.974Z,94.77
2019-01-10T10:41:14.248Z,103.33
2019-01-10T10:43:44.491Z,82.33
2019-01-10T10:46:14.665Z,98.67
2019-01-10T10:48:44.992Z,104.70
2019-01-10T10:51:15.275Z,125.70
2019-01-10T10:53:45.528Z,130.40
2019-01-10T10:56:15.729Z,123.87
2019-01-10T10:58:45.910Z,161.53
2019-01-10T11:01:16.202Z,148.40
2019-01-10T11:03:46.481Z,140.20
2019-01-10T11:06:16.680Z,132.37
2019-01-10T11:08:46.898Z,134.77
2019-01-10T11:11:17.174Z,131.30
2019-01-10T11:13:47.470Z,140.37
2019-01-10T11:16:17.647Z,185.27
2019-01-10T11:18:47.863Z,169.17
2019-01-10T11:21:18.153Z,187.20
2019-01-10T11:26:24.512Z,189.87
2019-01-10T11:28:54.752Z,181.97
2019-01-10T11:31:25.024Z,191.57
2019-01-10T11:37:14.634Z,208.67
2019-01-10T11:39:44.847Z,200.97
2019-01-10T11:42:15.137Z,183.70
2019-01-10T11:44:45.316Z,175.17
2019-01-10T11:47:15.575Z,166.03
2019-01-10T11:49:45.851Z,178.97
2019-01-10T11:52:16.000Z,152.53
2019-01-10T11:54:46.166Z,146.23
2019-01-10T11:57:16.435Z,135.13
2019-01-10T11:59:46.712Z,112.03
2019-01-10T12:02:16.905Z,104.57
2019-01-10T12:04:47.065Z,100.90
2019-01-10T12:07:17.352Z,89.37
2019-01-10T12:09:47.646Z,81.47
2019-01-10T12:12:17.803Z,91.87
2019-01-10T12:14:47.976Z,76.40
2019-01-10T12:17:18.245Z,108.87
2019-01-10T12:19:48.497Z,96.30
2019-01-10T12:22:18.643Z,90.40
2019-01-10T12:24:48.883Z,83.70
2019-01-10T12:27:19.032Z,98.03
2019-01-10T12:29:49.214Z,58.17
2019-01-10T12:32:19.473Z,56.07
2019-01-10T12:34:49.758Z,73.70
2019-01-10T12:37:20.042Z,77.47
2019-01-10T12:39:50.504Z,72.50
2019-01-10T12:42:20.753Z,74.43
2019-01-10T12:44:51.014Z,79.60
2019-01-10T12:47:21.301Z,85.30
2019-01-10T12:49:51.477Z,87.27
2019-01-10T12:52:21.850Z,114.93
2019-01-10T12:54:52.117Z,102.93
2019-01-10T12:57:22.286Z,88.87
2019-01-10T12:59:52.448Z,115.23
2019-01-10T13:02:22.697Z,92.07
2019-01-10T13:04:52.860Z,109.03
2019-01-10T13:07:23.135Z,142.90
2019-01-10T13:09:53.417Z,121.40
2019-01-10T13:12:23.567Z,129.20
2019-01-10T13:14:53.728Z,102.20
2019-01-10T13:17:23.986Z,74.83
2019-01-10T13:19:54.220Z,86.23
2019-01-10T13:22:24.351Z,92.30
2019-01-10T13:24:54.530Z,109.40
2019-01-10T13:27:24.854Z,69.30
2019-01-10T13:29:55.124Z,94.40
2019-01-10T13:32:25.389Z,119.87
2019-01-10T13:34:55.558Z,95.60
2019-01-10T13:37:25.937Z,105.70
2019-01-10T13:39:56.221Z,109.60
2019-01-10T13:42:26.385Z,171.00
2019-01-10T13:44:56.696Z,166.40
2019-01-10T13:47:26.856Z,189.97
2019-01-10T13:49:57.033Z,160.17
2019-01-10T13:52:27.339Z,210.17
2019-01-10T13:54:57.610Z,125.30
2019-01-10T13:57:28.209Z,124.63
2019-01-10T14:02:35.417Z,162.97
2019-01-10T14:05:30.623Z,177.73
2019-01-10T14:08:01.074Z,108.77
2019-01-10T14:10:31.345Z,118.97
2019-01-10T14:13:01.594Z,99.70
2019-01-10T14:18:31.472Z,91.30
2019-01-10T14:21:01.628Z,100.30
2019-01-10T14:23:31.790Z,97.13
2019-01-10T14:26:02.057Z,106.93
2019-01-10T14:28:32.305Z,117.37
2019-01-10T14:33:53.587Z,116.70
2019-01-10T14:36:23.744Z,113.30
2019-01-10T14:38:53.896Z,121.23
2019-01-10T14:41:24.144Z,95.90
2019-01-10T14:43:54.398Z,101.83
2019-01-10T14:46:24.558Z,120.17
2019-01-10T14:48:54.846Z,158.37
2019-01-10T14:51:25.111Z,125.90
2019-01-10T14:53:55.359Z,128.03
2019-01-10T14:56:25.507Z,127.13
2019-01-10T14:58:55.671Z,121.03
2019-01-10T15:01:25.949Z,153.40
2019-01-10T15:03:56.219Z,162.10
2019-01-10T15:06:26.398Z,160.03
2019-01-10T15:08:56.661Z,124.33
2019-01-10T15:11:26.830Z,115.13
2019-01-10T15:13:57.025Z,155.27
2019-01-10T15:16:27.305Z,168.10
2019-01-10T15:18:57.592Z,136.40
2019-01-10T15:21:27.765Z,137.10
2019-01-10T15:23:57.945Z,127.97
2019-01-10T15:26:28.272Z,137.50
2019-01-10T15:28:58.522Z,144.73
2019-01-10T15:31:28.746Z,157.87
2019-01-10T15:33:59.325Z,157.37
2019-01-10T15:36:29.593Z,148.43
2019-01-10T15:38:59.858Z,161.67
2019-01-10T15:41:30.145Z,249.53
2019-01-10T15:44:00.219Z,283.07
2019-01-10T15:46:30.478Z,306.83
2019-01-10T15:49:00.700Z,277.37
2019-01-10T15:51:30.969Z,316.60
2019-01-10T15:54:01.252Z,327.10
2019-01-10T15:56:31.410Z,329.90
2019-01-10T15:59:01.568Z,323.37
2019-01-10T16:01:31.829Z,306.37
2019-01-10T16:04:07.320Z,302.60
2019-01-10T16:06:34.079Z,407.93
2019-01-10T16:09:24.391Z,382.00
2019-01-10T16:11:54.848Z,379.63
2019-01-10T16:14:25.105Z,370.67
2019-01-10T16:16:55.279Z,329.30
2019-01-10T16:19:25.424Z,230.53
2019-01-10T16:21:55.683Z,149.13
2019-01-10T16:24:25.905Z,92.70
2019-01-10T16:26:56.047Z,154.50
2019-01-10T16:29:26.205Z,119.73
2019-01-10T16:31:56.469Z,128.87
2019-01-10T16:34:26.716Z,120.27
2019-01-10T16:36:56.918Z,143.00
2019-01-10T16:39:27.154Z,131.27
2019-01-10T16:41:57.411Z,200.97
2019-01-10T16:44:27.678Z,147.27
2019-01-10T16:46:57.855Z,192.50
2019-01-10T16:49:28.036Z,175.77
2019-01-10T16:51:58.305Z,191.60
2019-01-10T16:54:28.575Z,242.33
2019-01-10T16:56:58.728Z,180.53
2019-01-10T16:59:28.868Z,144.33
2019-01-10T17:01:59.135Z,156.47
2019-01-10T17:04:29.405Z,166.93
2019-01-10T17:06:59.573Z,193.87
2019-01-10T17:09:29.848Z,181.03
2019-01-10T17:14:35.665Z,170.10
2019-01-10T17:17:06.049Z,158.83
2019-01-10T17:19:36.326Z,137.93
2019-01-10T17:25:25.568Z,131.10
2019-01-10T17:27:55.892Z,124.27
2019-01-10T17:30:31.299Z,199.60
2019-01-10T17:33:02.292Z,215.10
2019-01-10T17:35:34.084Z,258.27
2019-01-10T17:41:02.858Z,219.60
2019-01-10T17:43:33.230Z,236.63
2019-01-10T17:46:03.500Z,255.53
2019-01-10T17:48:33.672Z,265.13
2019-01-10T17:51:03.987Z,273.10
2019-01-10T17:53:34.158Z,236.23
2019-01-10T17:56:04.422Z,310.80
2019-01-10T17:58:34.708Z,291.13
2019-01-10T18:04:10.846Z,284.47
2019-01-10T18:06:41.207Z,244.53
2019-01-10T18:09:11.570Z,215.87
2019-01-10T18:11:41.734Z,205.73
2019-01-10T18:14:11.887Z,208.13
2019-01-10T18:16:42.147Z,212.80
2019-01-10T18:19:12.412Z,154.40
2019-01-10T18:21:42.579Z,150.67
2019-01-10T18:24:12.743Z,190.10
2019-01-10T18:26:43.012Z,124.43
2019-01-10T18:29:13.249Z,186.60
2019-01-10T18:31:43.400Z,249.83
2019-01-10T18:34:13.651Z,201.30
2019-01-10T18:36:43.875Z,153.13
2019-01-10T18:39:14.044Z,179.20
2019-01-10T18:41:44.304Z,145.63
2019-01-10T18:44:14.657Z,136.23
2019-01-10T18:46:44.812Z,148.63
2019-01-10T18:49:14.966Z,170.33
2019-01-10T18:51:45.210Z,210.30
2019-01-10T18:54:15.472Z,183.27
2019-01-10T18:56:45.611Z,176.43
2019-01-10T18:59:15.768Z,157.50
2019-01-10T19:01:46.048Z,157.73
2019-01-10T19:06:52.365Z,112.27
2019-01-10T19:09:22.652Z,151.20
2019-01-10T19:11:52.909Z,138.30
2019-01-10T19:14:23.087Z,115.67
2019-01-10T19:16:53.475Z,84.53
2019-01-10T19:19:23.728Z,73.13
2019-01-10T19:21:53.922Z,62.77
2019-01-10T19:24:24.068Z,65.13
2019-01-10T19:26:54.328Z,88.97
2019-01-10T19:29:24.587Z,104.50
2019-01-10T19:31:54.746Z,133.93
2019-01-10T19:34:24.898Z,163.00
2019-01-10T19:36:55.151Z,150.00
2019-01-10T19:39:25.426Z,143.90
2019-01-10T19:41:55.588Z,159.87
2019-01-10T19:44:25.781Z,123.93
2019-01-10T19:46:56.046Z,120.13
2019-01-10T19:49:26.290Z,151.13
2019-01-10T19:51:56.443Z,133.97
2019-01-10T19:54:26.710Z,161.47
2019-01-10T19:56:56.853Z,202.50
2019-01-10T19:59:27.019Z,236.10
2019-01-10T20:01:57.280Z,194.10
2019-01-10T20:04:27.640Z,229.13
2019-01-10T20:06:58.089Z,182.37
2019-01-10T20:09:30.048Z,173.33
2019-01-10T20:12:00.555Z,246.50
2019-01-10T20:14:31.005Z,248.50
2019-01-10T20:17:01.219Z,252.47
2019-01-10T20:19:31.446Z,294.10
2019-01-10T20:22:01.782Z,270.63
2019-01-10T20:27:22.917Z,260.00
2019-01-10T20:29:53.253Z,141.50
2019-01-10T20:35:24.278Z,77.37
2019-01-10T20:37:54.714Z,68.13
2019-01-10T20:40:24.969Z,103.50
2019-01-10T20:42:55.224Z,99.97
2019-01-10T20:45:25.364Z,75.43
2019-01-10T20:50:52.520Z,67.60
2019-01-10T20:53:22.937Z,58.30
2019-01-10T20:55:53.083Z,48.60
2019-01-10T20:58:41.955Z,48.37
2019-01-10T21:01:12.296Z,47.60
2019-01-10T21:03:42.717Z,51.13
2019-01-10T21:06:12.957Z,50.00
2019-01-10T21:08:43.121Z,37.13
2019-01-10T21:11:13.439Z,35.07
2019-01-10T21:13:43.766Z,44.00
2019-01-10T21:16:13.953Z,20.47
2019-01-10T21:18:44.267Z,32.33
2019-01-10T21:21:14.424Z,24.17
2019-01-10T21:23:44.595Z,18.73
2019-01-10T21:26:14.847Z,3.30
2019-01-10T21:28:45.110Z,6.83
2019-01-10T21:31:15.397Z,7.63
2019-01-10T21:33:45.639Z,27.83
2019-01-10T21:36:15.969Z,7.53
2019-01-10T21:38:46.213Z,10.77
2019-01-10T21:41:16.376Z,13.10
2019-01-10T21:43:46.529Z,7.27
2019-01-10T21:51:51.233Z,7.40
2019-01-10T21:57:12.221Z,12.17
2019-01-10T21:59:42.566Z,8.83
2019-01-10T22:02:12.893Z,7.77
2019-01-10T22:04:43.125Z,28.03
2019-01-10T22:07:13.690Z,33.87
2019-01-10T22:09:43.976Z,28.17
2019-01-10T22:12:14.325Z,29.73
2019-01-10T22:14:44.529Z,21.20
2019-01-10T22:17:14.724Z,22.03
2019-01-10T22:19:44.969Z,15.30
2019-01-10T22:22:15.173Z,14.30
2019-01-10T22:27:36.237Z,9.40
2019-01-10T22:33:18.392Z,19.63
2019-01-10T22:35:48.650Z,27.70
2019-01-10T22:38:18.924Z,48.13
2019-01-10T22:40:49.136Z,56.77
2019-01-10T22:43:19.358Z,49.23
2019-01-10T22:45:49.614Z,51.27
2019-01-10T22:48:19.830Z,53.80
2019-01-10T22:50:50.089Z,60.87
2019-01-10T22:56:11.540Z,53.97
2019-01-10T22:58:41.887Z,59.80
2019-01-10T23:04:39.616Z,39.50
2019-01-10T23:10:25.582Z,21.83
2019-01-10T23:12:55.891Z,16.20
2019-01-10T23:18:24.039Z,18.40
2019-01-10T23:23:46.227Z,17.67
2019-01-10T23:26:16.526Z,13.60
2019-01-10T23:28:46.710Z,9.27
2019-01-10T23:31:18.524Z,10.20
2019-01-10T23:33:48.754Z,12.13
2019-01-10T23:36:18.963Z,15.77
2019-01-10T23:41:46.729Z,6.20
2019-01-10T23:44:16.994Z,10.13
2019-01-10T23:46:47.222Z,28.13
2019-01-10T23:49:17.545Z,21.33
2019-01-10T23:51:47.805Z,23.30
2019-01-10T23:57:17.474Z,19.53
2019-01-10T23:59:50.770Z,14.90
